Time;durP1;ratioP1;P1;durP2;ratioP2;P2;SDS_P1;SDS_P2;PMS_P1;PMS_P2;Temp;Humidity;BMP_temperature;BMP_pressure;BME280_temperature;BME280_humidity;BME280_pressure;Samples;Min_cycle;Max_cycle;Signal;HPM_P1;HPM_P2
2022/02/05 00:00:03;;;;;;;1.90;1.42;;;3.80;99.90;;;;;;5021796;28;20666;-85
2022/02/05 00:02:20;;;;;;;1.08;1.08;;;3.80;99.90;;;;;;5026710;28;20243;-85
2022/02/05 00:04:48;;;;;;;0.95;0.95;;;3.70;99.90;;;;;;5028124;28;20207;-84
2022/02/05 00:07:17;;;;;;;1.17;1.08;;;3.70;99.90;;;;;;5029676;28;20216;-85
2022/02/05 00:10:02;;;;;;;0.73;0.60;;;3.60;99.90;;;;;;5009282;28;20203;-85
2022/02/05 00:12:45;;;;;;;0.60;0.60;;;3.50;99.90;;;;;;5025639;28;20244;-85
2022/02/05 00:15:34;;;;;;;1.38;1.15;;;3.50;99.90;;;;;;5024654;28;20660;-83
2022/02/05 00:40:04;;;;;;;1.38;0.80;;;2.90;99.90;;;;;;5013391;28;20275;-84
2022/02/05 00:42:37;;;;;;;0.70;0.70;;;2.80;99.90;;;;;;5011754;28;20223;-83
2022/02/05 00:45:08;;;;;;;1.33;1.23;;;2.70;99.90;;;;;;5025330;28;20217;-84
2022/02/05 00:47:36;;;;;;;0.90;0.90;;;2.60;99.90;;;;;;5015075;28;20268;-83
2022/02/05 00:50:06;;;;;;;1.95;1.42;;;2.50;99.90;;;;;;5006650;28;20228;-84
2022/02/05 00:52:33;;;;;;;0.75;0.65;;;2.50;99.90;;;;;;5006317;28;20236;-81
2022/02/05 00:55:07;;;;;;;0.77;0.77;;;2.40;99.90;;;;;;5008645;28;20198;-84
2022/02/05 00:57:46;;;;;;;1.75;0.52;;;2.30;99.90;;;;;;5025695;28;20219;-82
2022/02/05 01:00:18;;;;;;;1.05;0.77;;;2.30;99.90;;;;;;5020329;28;20295;-83
2022/02/05 01:02:45;;;;;;;0.73;0.73;;;2.30;99.90;;;;;;5004806;28;20227;-84
2022/02/05 01:05:12;;;;;;;1.00;0.95;;;2.20;99.90;;;;;;5013025;28;20203;-80
2022/02/05 01:07:40;;;;;;;1.05;1.00;;;2.20;99.90;;;;;;5018640;28;20213;-83
2022/02/05 01:10:09;;;;;;;1.65;1.25;;;2.10;99.90;;;;;;5021301;28;20262;-80
2022/02/05 01:12:39;;;;;;;1.08;0.98;;;2.10;99.90;;;;;;5037954;28;20243;-79
2022/02/05 01:15:07;;;;;;;1.02;0.70;;;2.10;99.90;;;;;;5035252;28;20184;-81
2022/02/05 01:17:38;;;;;;;1.23;1.13;;;2.00;99.90;;;;;;5018429;28;20213;-80
2022/02/05 01:20:46;;;;;;;1.65;1.23;;;2.00;99.90;;;;;;5020134;28;20193;-81
2022/02/05 01:23:17;;;;;;;1.00;1.00;;;2.00;99.90;;;;;;5028051;28;20192;-81
2022/02/05 01:25:51;;;;;;;1.75;1.38;;;2.00;99.90;;;;;;5024891;28;20195;-81
2022/02/05 01:28:23;;;;;;;1.83;1.73;;;2.00;99.90;;;;;;5038020;28;20187;-81
2022/02/05 01:30:53;;;;;;;1.67;1.50;;;2.00;99.90;;;;;;5026206;28;20248;-81
2022/02/05 01:33:38;;;;;;;1.42;1.33;;;2.00;99.90;;;;;;5026935;28;20219;-81
2022/02/05 01:36:23;;;;;;;2.42;1.10;;;1.90;99.90;;;;;;5037452;28;20219;-81
2022/02/05 01:55:52;;;;;;;4.20;1.27;;;1.90;99.90;;;;;;5015328;28;20192;-82
2022/02/05 01:58:26;;;;;;;1.38;1.17;;;1.90;99.90;;;;;;5018141;28;20195;-81
2022/02/05 02:06:33;;;;;;;1.35;1.30;;;1.80;99.90;;;;;;5024426;28;20215;-82
2022/02/05 02:11:47;;;;;;;1.30;1.20;;;1.80;99.90;;;;;;5031816;28;20247;-82
2022/02/05 02:17:37;;;;;;;1.77;1.48;;;1.70;99.90;;;;;;5020701;28;20222;-81
2022/02/05 02:20:21;;;;;;;1.60;1.50;;;1.70;99.90;;;;;;5017612;28;20198;-81
2022/02/05 02:23:02;;;;;;;1.50;1.50;;;1.70;99.90;;;;;;5037341;28;20211;-82
2022/02/05 02:25:42;;;;;;;2.00;1.20;;;1.70;99.90;;;;;;5033686;28;20187;-81
2022/02/05 02:28:15;;;;;;;1.30;1.20;;;1.70;99.90;;;;;;5017824;28;20218;-81
2022/02/05 02:30:53;;;;;;;1.85;1.10;;;1.70;99.90;;;;;;5017243;28;20219;-80
2022/02/05 02:33:27;;;;;;;2.72;1.40;;;1.70;99.90;;;;;;5017596;28;20243;-81
2022/02/05 02:35:54;;;;;;;1.40;1.30;;;1.70;99.90;;;;;;5017496;28;20191;-82
2022/02/05 02:38:26;;;;;;;2.20;1.95;;;1.70;99.90;;;;;;5028417;28;20188;-81
2022/02/05 02:41:01;;;;;;;3.60;1.70;;;1.80;99.90;;;;;;5035667;28;20189;-82
2022/02/05 02:43:30;;;;;;;1.77;1.67;;;1.80;99.90;;;;;;5021675;28;20620;-84
2022/02/05 02:45:57;;;;;;;2.95;2.75;;;1.90;99.90;;;;;;5016015;28;20203;-83
2022/02/05 02:48:24;;;;;;;1.65;1.55;;;1.80;99.90;;;;;;5020006;28;20206;-84
2022/02/05 02:56:33;;;;;;;3.05;2.17;;;1.70;99.90;;;;;;5002835;28;20212;-85
2022/02/05 02:59:05;;;;;;;2.88;2.28;;;1.80;99.90;;;;;;5001851;28;20212;-84
2022/02/05 03:01:36;;;;;;;1.80;1.55;;;1.80;99.90;;;;;;5012355;28;20243;-84
2022/02/05 03:04:03;;;;;;;2.65;2.00;;;1.90;99.90;;;;;;5000694;28;20208;-84
2022/02/05 03:06:29;;;;;;;2.10;1.80;;;1.90;99.90;;;;;;4999828;28;20204;-83
2022/02/05 03:08:57;;;;;;;1.70;1.60;;;1.90;99.90;;;;;;4999176;28;20215;-83
2022/02/05 03:11:24;;;;;;;2.88;2.05;;;1.80;99.90;;;;;;4998121;28;20228;-83
2022/02/05 03:13:51;;;;;;;1.65;1.55;;;1.70;99.90;;;;;;5001159;28;20220;-83
2022/02/05 03:16:23;;;;;;;2.65;1.65;;;1.60;99.90;;;;;;4997418;28;20674;-83
2022/02/05 03:19:08;;;;;;;2.08;1.85;;;1.60;99.90;;;;;;5004768;28;20227;-82
2022/02/05 03:21:36;;;;;;;5.57;2.22;;;1.60;99.90;;;;;;5002278;28;20641;-83
2022/02/05 03:24:05;;;;;;;3.00;2.05;;;1.60;99.90;;;;;;5004424;28;20203;-83
2022/02/05 03:26:35;;;;;;;2.08;1.98;;;1.60;99.90;;;;;;5012626;28;20208;-82
2022/02/05 03:29:02;;;;;;;4.35;2.33;;;1.60;99.90;;;;;;5015418;28;20207;-84
2022/02/05 03:31:28;;;;;;;4.10;2.55;;;1.50;99.90;;;;;;5013516;28;20567;-83
2022/02/05 03:33:55;;;;;;;3.95;2.22;;;1.50;99.90;;;;;;5015758;28;20234;-83
2022/02/05 03:36:22;;;;;;;2.50;1.70;;;1.60;99.90;;;;;;5010327;28;20199;-82
2022/02/05 03:38:49;;;;;;;9.77;2.33;;;1.60;99.90;;;;;;4996001;28;20552;-83
2022/02/05 03:41:17;;;;;;;3.25;2.88;;;1.60;99.90;;;;;;4998787;28;20228;-83
2022/02/05 03:43:43;;;;;;;2.17;1.98;;;1.60;99.90;;;;;;5015933;28;20234;-84
2022/02/05 03:46:10;;;;;;;2.05;1.75;;;1.70;99.90;;;;;;5013568;28;20245;-82
2022/02/05 03:48:37;;;;;;;8.85;2.90;;;1.60;99.90;;;;;;5003970;28;20197;-83
2022/02/05 03:51:04;;;;;;;2.85;2.15;;;1.60;99.90;;;;;;5017394;28;20235;-84
2022/02/05 03:53:31;;;;;;;3.95;2.13;;;1.60;99.90;;;;;;4999452;28;20713;-84
2022/02/05 03:55:58;;;;;;;2.33;2.10;;;1.60;99.90;;;;;;5000496;28;20209;-83
2022/02/05 03:58:26;;;;;;;2.88;2.53;;;1.50;99.90;;;;;;5019377;28;20223;-83
2022/02/05 04:00:52;;;;;;;2.20;2.00;;;1.50;99.90;;;;;;5013027;28;20211;-85
2022/02/05 04:03:19;;;;;;;3.05;2.35;;;1.30;99.90;;;;;;5000594;28;20576;-83
2022/02/05 04:05:46;;;;;;;2.35;1.73;;;1.30;99.90;;;;;;5006085;28;20198;-83
2022/02/05 04:08:14;;;;;;;6.75;2.75;;;1.30;99.90;;;;;;5020295;28;20209;-84
2022/02/05 04:10:46;;;;;;;2.40;2.25;;;1.20;99.90;;;;;;5014438;28;20260;-84
2022/02/05 04:16:21;;;;;;;5.43;2.45;;;1.20;99.90;;;;;;4965836;28;20666;-84
2022/02/05 04:18:48;;;;;;;3.25;2.05;;;1.30;99.90;;;;;;5000039;28;20251;-83
2022/02/05 04:21:15;;;;;;;2.28;2.08;;;1.30;99.90;;;;;;4999983;28;20231;-82
2022/02/05 04:23:42;;;;;;;7.07;2.75;;;1.40;99.90;;;;;;4999878;28;20210;-83
2022/02/05 04:26:09;;;;;;;2.45;2.25;;;1.50;99.90;;;;;;5017600;28;20208;-84
2022/02/05 04:28:36;;;;;;;4.43;2.22;;;1.60;99.90;;;;;;5016800;28;20208;-82
2022/02/05 04:31:03;;;;;;;3.05;2.60;;;1.60;99.90;;;;;;5014394;28;20228;-83
2022/02/05 04:33:31;;;;;;;2.00;1.90;;;1.80;99.90;;;;;;5015460;28;20223;-82
2022/02/05 04:35:58;;;;;;;2.90;2.42;;;1.80;99.90;;;;;;4998397;28;20205;-83
2022/02/05 04:38:26;;;;;;;2.33;2.08;;;1.80;99.90;;;;;;4996192;28;20213;-83
2022/02/05 04:40:56;;;;;;;2.30;2.15;;;1.90;99.90;;;;;;5012274;28;20264;-83
2022/02/05 04:43:44;;;;;;;5.85;3.75;;;2.00;99.90;;;;;;5016882;28;20235;-83
2022/02/05 04:46:32;;;;;;;6.35;2.60;;;2.00;99.90;;;;;;4999325;28;20210;-83
2022/02/05 04:49:23;;;;;;;5.60;2.92;;;2.10;99.90;;;;;;4997264;28;20210;-83
2022/02/05 04:52:22;;;;;;;3.53;3.20;;;2.10;99.90;;;;;;5005990;28;20238;-83
2022/02/05 04:55:01;;;;;;;4.07;2.22;;;2.00;99.90;;;;;;5007127;28;20224;-83
2022/02/05 04:57:46;;;;;;;2.95;2.75;;;2.00;99.90;;;;;;5008026;28;20210;-82
2022/02/05 05:00:24;;;;;;;4.20;2.92;;;2.10;99.90;;;;;;5016905;28;20670;-83
2022/02/05 05:02:57;;;;;;;4.13;2.60;;;2.20;99.90;;;;;;5026323;28;20285;-83
2022/02/05 05:05:42;;;;;;;3.05;2.78;;;2.30;99.90;;;;;;5015787;28;20262;-84
2022/02/05 05:08:31;;;;;;;5.10;3.65;;;2.20;99.90;;;;;;5003813;28;20227;-83
2022/02/05 05:11:23;;;;;;;3.20;2.88;;;2.30;99.90;;;;;;5018813;28;20236;-84
2022/02/05 05:19:36;;;;;;;5.10;2.58;;;2.40;99.90;;;;;;5001796;28;20220;-84
2022/02/05 05:22:05;;;;;;;2.60;2.40;;;2.40;99.90;;;;;;4999796;28;20221;-84
2022/02/05 05:24:32;;;;;;;3.10;2.78;;;2.30;99.90;;;;;;5000856;28;20205;-84
2022/02/05 05:26:58;;;;;;;2.88;2.58;;;2.20;99.90;;;;;;4999513;28;20208;-84
2022/02/05 05:29:26;;;;;;;3.50;3.17;;;2.30;99.90;;;;;;5009709;28;20204;-84
2022/02/05 05:31:52;;;;;;;3.50;2.40;;;2.30;99.90;;;;;;5016216;28;20224;-83
2022/02/05 05:34:19;;;;;;;2.90;2.70;;;2.40;99.90;;;;;;4999703;28;20718;-84
2022/02/05 05:36:46;;;;;;;3.28;2.38;;;2.50;99.90;;;;;;4998651;28;20224;-83
2022/02/05 05:39:14;;;;;;;4.13;2.85;;;2.40;99.90;;;;;;5012875;28;20278;-82
2022/02/05 05:41:42;;;;;;;3.05;2.60;;;2.30;99.90;;;;;;5014006;28;20232;-82
2022/02/05 05:44:33;;;;;;;4.55;3.35;;;2.40;99.90;;;;;;5003282;28;20208;-83
2022/02/05 05:47:19;;;;;;;3.75;2.08;;;2.50;99.90;;;;;;4997415;28;20205;-83
2022/02/05 05:49:58;;;;;;;6.55;2.72;;;2.50;99.90;;;;;;4994225;28;20264;-83
2022/02/05 05:52:27;;;;;;;3.10;2.80;;;2.50;99.90;;;;;;4993596;28;20319;-83
2022/02/05 05:54:55;;;;;;;4.43;2.90;;;2.50;99.90;;;;;;5011815;28;20588;-83
2022/02/05 05:57:22;;;;;;;2.65;2.40;;;2.60;99.90;;;;;;5014455;28;20203;-83
2022/02/05 05:59:49;;;;;;;2.90;2.70;;;2.60;99.90;;;;;;4996339;28;20584;-82
2022/02/05 06:02:16;;;;;;;4.05;2.90;;;2.60;99.90;;;;;;4993837;28;20229;-83
2022/02/05 06:04:43;;;;;;;3.78;2.33;;;2.50;99.90;;;;;;5011107;28;20206;-83
2022/02/05 06:07:09;;;;;;;9.07;3.28;;;2.50;99.90;;;;;;5014694;28;20619;-83
2022/02/05 06:09:40;;;;;;;3.38;3.05;;;2.60;99.90;;;;;;4999318;28;20204;-83
2022/02/05 06:12:10;;;;;;;6.90;3.63;;;2.60;99.90;;;;;;5021579;23;20644;-84
2022/02/05 06:14:38;;;;;;;4.05;3.20;;;2.50;99.90;;;;;;5026948;28;20224;-84
2022/02/05 06:17:07;;;;;;;3.47;3.17;;;2.60;99.90;;;;;;5027852;28;20199;-84
2022/02/05 06:19:35;;;;;;;3.13;2.83;;;2.70;99.90;;;;;;5028606;28;20204;-84
2022/02/05 06:22:01;;;;;;;3.67;2.97;;;2.60;99.90;;;;;;5028595;28;20232;-84
2022/02/05 06:24:28;;;;;;;4.05;3.10;;;2.70;99.90;;;;;;5031331;28;20202;-83
2022/02/05 06:26:55;;;;;;;3.33;3.00;;;2.70;99.90;;;;;;5031976;28;20210;-84
2022/02/05 06:29:23;;;;;;;3.17;2.72;;;2.70;99.90;;;;;;5032156;28;20204;-84
2022/02/05 06:31:50;;;;;;;6.72;4.43;;;2.70;99.90;;;;;;5033410;28;20234;-84
2022/02/05 06:34:17;;;;;;;3.75;3.08;;;2.60;99.90;;;;;;5033763;28;20700;-84
2022/02/05 06:36:43;;;;;;;3.60;3.30;;;2.60;99.90;;;;;;5032924;28;20206;-84
2022/02/05 06:39:10;;;;;;;3.42;3.13;;;2.70;99.90;;;;;;5033068;28;20209;-84
2022/02/05 06:41:37;;;;;;;4.40;2.97;;;2.70;99.90;;;;;;5032745;28;20230;-84
2022/02/05 06:44:04;;;;;;;8.52;3.40;;;2.60;99.90;;;;;;5032669;28;20198;-84
2022/02/05 06:46:32;;;;;;;4.47;2.92;;;2.60;99.90;;;;;;5032913;28;20214;-84
2022/02/05 06:48:59;;;;;;;3.45;2.60;;;2.50;99.90;;;;;;5032550;28;20271;-84
2022/02/05 06:51:26;;;;;;;2.70;2.50;;;2.60;99.90;;;;;;5033475;28;20218;-84
2022/02/05 06:53:52;;;;;;;4.13;2.70;;;2.50;99.90;;;;;;5032689;28;20215;-84
2022/02/05 06:56:19;;;;;;;4.30;3.10;;;2.50;99.90;;;;;;5032258;28;20201;-84
2022/02/05 06:58:46;;;;;;;4.50;3.03;;;2.50;99.90;;;;;;5032632;28;20218;-84
2022/02/05 07:01:13;;;;;;;3.28;2.97;;;2.50;99.90;;;;;;5031869;28;20205;-83
2022/02/05 07:03:41;;;;;;;3.90;3.10;;;2.50;99.90;;;;;;5032616;28;20211;-84
2022/02/05 07:06:07;;;;;;;5.75;2.80;;;2.40;99.90;;;;;;5032720;28;20595;-84
2022/02/05 07:08:34;;;;;;;2.88;2.35;;;2.50;99.90;;;;;;5033412;28;20203;-83
2022/02/05 07:11:01;;;;;;;3.22;2.65;;;2.30;99.90;;;;;;5032675;28;20203;-83
2022/02/05 07:13:28;;;;;;;2.78;2.50;;;2.30;99.90;;;;;;5033497;28;20240;-84
2022/02/05 07:16:00;;;;;;;6.05;4.90;;;2.40;99.90;;;;;;5032798;28;20714;-84
2022/02/05 07:18:35;;;;;;;3.67;3.38;;;2.40;99.90;;;;;;5034050;28;20215;-84
2022/02/05 07:21:07;;;;;;;6.30;2.60;;;2.50;99.90;;;;;;5036303;28;20208;-85
2022/02/05 07:23:47;;;;;;;5.82;3.13;;;2.50;99.90;;;;;;5033954;28;20213;-85
2022/02/05 07:29:13;;;;;;;2.65;2.45;;;2.50;99.90;;;;;;5034411;28;20242;-85
2022/02/05 07:31:42;;;;;;;4.68;2.63;;;2.60;99.90;;;;;;5033850;28;20260;-85
2022/02/05 07:34:09;;;;;;;2.70;2.38;;;2.60;99.90;;;;;;5033100;28;20230;-84
2022/02/05 07:36:37;;;;;;;4.28;2.47;;;2.50;99.90;;;;;;5033685;28;20213;-84
2022/02/05 07:39:06;;;;;;;3.35;2.95;;;2.60;99.90;;;;;;5033995;28;20218;-84
2022/02/05 07:41:33;;;;;;;4.05;2.53;;;2.50;99.90;;;;;;5033546;28;20223;-84
2022/02/05 07:44:00;;;;;;;3.20;2.45;;;2.30;99.90;;;;;;5034050;28;20206;-84
2022/02/05 07:46:27;;;;;;;3.00;2.72;;;2.40;99.90;;;;;;5034289;28;20275;-84
2022/02/05 07:48:54;;;;;;;4.65;2.80;;;2.40;99.90;;;;;;5033551;28;20204;-85
2022/02/05 07:51:20;;;;;;;4.70;3.83;;;2.50;99.90;;;;;;5033570;28;20208;-85
2022/02/05 07:53:49;;;;;;;2.72;2.53;;;2.50;99.90;;;;;;5033428;28;20206;-85
2022/02/05 07:56:16;;;;;;;5.13;2.53;;;2.50;99.90;;;;;;5032477;28;20720;-84
2022/02/05 07:58:43;;;;;;;4.90;2.95;;;2.50;99.90;;;;;;5031733;28;20288;-84
2022/02/05 08:01:09;;;;;;;6.90;2.50;;;2.50;99.90;;;;;;5031881;28;20207;-85
2022/02/05 08:03:36;;;;;;;7.07;2.20;;;2.50;99.90;;;;;;5033293;28;20196;-84
2022/02/05 08:06:05;;;;;;;3.05;2.75;;;2.50;99.90;;;;;;5032350;28;20199;-86
2022/02/05 08:08:35;;;;;;;1.92;1.38;;;2.60;99.90;;;;;;5033700;28;20210;-84
2022/02/05 08:11:06;;;;;;;2.90;2.70;;;2.60;99.90;;;;;;5032727;28;20230;-85
2022/02/05 08:13:34;;;;;;;2.50;2.30;;;2.70;99.90;;;;;;5032812;28;20237;-85
2022/02/05 08:16:11;;;;;;;4.25;2.22;;;2.70;99.90;;;;;;5032896;28;20255;-84
2022/02/05 08:18:39;;;;;;;5.15;2.72;;;2.70;99.90;;;;;;5032040;28;20231;-84
2022/02/05 08:21:06;;;;;;;5.05;2.10;;;2.70;99.90;;;;;;5031411;28;20300;-84
2022/02/05 08:23:33;;;;;;;2.65;2.17;;;2.80;99.90;;;;;;5032203;28;20204;-84
2022/02/05 08:25:59;;;;;;;4.88;2.13;;;2.80;99.90;;;;;;5032384;28;20268;-84
2022/02/05 08:28:29;;;;;;;2.40;2.20;;;2.80;99.90;;;;;;5032252;28;20208;-84
2022/02/05 08:30:55;;;;;;;2.45;2.05;;;2.80;99.90;;;;;;5032244;28;20233;-84
2022/02/05 08:33:22;;;;;;;2.28;2.15;;;2.90;99.90;;;;;;5032343;28;20229;-85
2022/02/05 08:35:50;;;;;;;3.25;2.95;;;2.90;99.90;;;;;;5033488;28;20294;-84
2022/02/05 08:38:17;;;;;;;2.95;2.20;;;2.90;99.90;;;;;;5034235;28;20211;-84
2022/02/05 08:40:44;;;;;;;3.40;2.60;;;3.00;99.90;;;;;;5033568;28;20257;-84
2022/02/05 08:43:11;;;;;;;6.78;2.45;;;3.00;99.90;;;;;;5033080;28;20260;-85
2022/02/05 08:45:40;;;;;;;4.93;1.83;;;3.10;99.90;;;;;;5032912;28;20194;-84
2022/02/05 08:48:09;;;;;;;2.55;1.83;;;3.30;99.90;;;;;;5032990;28;20265;-84
2022/02/05 08:50:36;;;;;;;2.53;2.33;;;3.40;99.90;;;;;;5033094;28;20251;-84
2022/02/05 08:53:03;;;;;;;2.92;2.22;;;3.40;99.90;;;;;;5033175;28;20251;-85
2022/02/05 08:55:31;;;;;;;3.97;2.22;;;3.50;99.90;;;;;;5033225;28;20223;-85
2022/02/05 08:57:59;;;;;;;3.15;2.55;;;3.40;99.90;;;;;;5032404;28;20211;-84
2022/02/05 09:00:27;;;;;;;4.35;2.55;;;3.50;99.90;;;;;;5032124;28;20267;-84
2022/02/05 09:03:03;;;;;;;2.85;1.35;;;3.50;99.90;;;;;;5032972;28;20258;-84
2022/02/05 09:05:41;;;;;;;1.70;1.52;;;3.50;99.90;;;;;;5032367;28;20212;-84
2022/02/05 09:08:19;;;;;;;2.20;2.10;;;3.50;99.90;;;;;;5030642;28;20206;-83
2022/02/05 09:10:55;;;;;;;2.65;1.45;;;3.60;99.90;;;;;;5028641;28;20201;-84
2022/02/05 09:13:38;;;;;;;5.85;1.70;;;3.60;99.90;;;;;;5027961;28;20879;-85
2022/02/05 09:16:07;;;;;;;2.30;1.73;;;3.70;99.90;;;;;;5029061;28;20224;-84
2022/02/05 09:18:36;;;;;;;3.58;1.83;;;3.80;99.90;;;;;;5029564;28;20203;-84
2022/02/05 09:21:03;;;;;;;1.85;1.70;;;3.80;99.90;;;;;;5029839;28;20210;-83
2022/02/05 09:23:30;;;;;;;5.55;2.42;;;3.90;99.90;;;;;;5029874;28;20225;-84
2022/02/05 09:25:59;;;;;;;2.83;1.98;;;4.00;99.90;;;;;;5031603;28;20209;-84
2022/02/05 09:28:28;;;;;;;5.43;2.20;;;4.10;99.90;;;;;;5031824;28;20234;-84
2022/02/05 09:31:23;;;;;;;1.27;1.20;;;4.10;99.90;;;;;;5031546;28;20664;-84
2022/02/05 09:33:50;;;;;;;3.35;1.70;;;4.20;99.90;;;;;;5031585;28;20210;-84
2022/02/05 09:36:17;;;;;;;5.25;1.80;;;4.40;99.90;;;;;;5028529;28;20234;-85
2022/02/05 09:38:43;;;;;;;3.22;2.60;;;4.30;99.90;;;;;;5027592;28;20209;-85
2022/02/05 09:41:10;;;;;;;3.58;1.95;;;4.40;99.90;;;;;;5027196;28;20213;-85
2022/02/05 09:43:37;;;;;;;1.80;1.70;;;4.50;99.90;;;;;;5026811;28;20203;-85
2022/02/05 09:46:05;;;;;;;1.52;1.10;;;4.60;99.90;;;;;;5029522;28;20205;-85
2022/02/05 09:48:33;;;;;;;2.78;1.98;;;4.40;99.90;;;;;;5026505;28;20207;-84
2022/02/05 09:51:06;;;;;;;1.65;1.55;;;4.50;99.90;;;;;;5026256;28;20226;-86
2022/02/05 09:53:33;;;;;;;3.65;2.22;;;4.50;99.90;;;;;;5024993;28;20207;-85
2022/02/05 09:56:00;;;;;;;2.03;1.48;;;4.60;99.90;;;;;;5026604;28;20219;-86
2022/02/05 09:58:26;;;;;;;4.68;1.95;;;4.30;99.90;;;;;;5028619;28;20199;-85
2022/02/05 10:01:01;;;;;;;2.90;1.80;;;4.40;99.90;;;;;;5029244;28;20209;-85
2022/02/05 10:03:31;;;;;;;2.15;1.88;;;4.60;99.90;;;;;;5029711;28;20218;-85
2022/02/05 10:06:10;;;;;;;3.55;1.77;;;4.80;99.90;;;;;;5030329;28;20811;-86
2022/02/05 10:08:38;;;;;;;1.98;1.60;;;4.80;99.90;;;;;;5029686;28;20191;-86
2022/02/05 10:11:06;;;;;;;1.67;1.58;;;4.90;99.90;;;;;;5030242;28;20207;-86
2022/02/05 10:13:33;;;;;;;1.77;1.63;;;4.90;99.90;;;;;;5028304;28;20213;-86
2022/02/05 10:16:00;;;;;;;1.95;1.40;;;5.10;99.90;;;;;;5030893;28;20290;-87
2022/02/05 10:18:28;;;;;;;3.65;1.40;;;5.30;99.90;;;;;;5030002;28;20199;-86
2022/02/05 10:20:56;;;;;;;3.33;1.50;;;5.10;99.90;;;;;;5027717;28;20206;-84
2022/02/05 10:23:25;;;;;;;2.28;1.70;;;5.10;99.90;;;;;;5029424;28;20230;-84
2022/02/05 10:25:54;;;;;;;1.05;1.05;;;5.30;99.90;;;;;;5028507;28;20216;-83
2022/02/05 10:28:21;;;;;;;1.80;1.70;;;5.30;99.90;;;;;;5028494;28;20199;-84
2022/02/05 10:30:51;;;;;;;1.50;1.40;;;5.20;99.90;;;;;;5028612;28;20211;-84
2022/02/05 10:33:22;;;;;;;1.70;1.40;;;5.30;99.90;;;;;;5027062;28;20257;-83
2022/02/05 10:35:54;;;;;;;2.45;1.58;;;5.50;99.90;;;;;;5025859;28;20222;-85
2022/02/05 10:38:52;;;;;;;1.70;1.60;;;5.70;99.90;;;;;;5022732;28;20203;-85
2022/02/05 10:44:15;;;;;;;3.80;1.40;;;5.90;99.90;;;;;;5020739;28;20206;-86
2022/02/05 10:46:45;;;;;;;1.70;1.60;;;5.80;99.90;;;;;;5021231;28;20644;-84
2022/02/05 10:49:13;;;;;;;4.85;3.45;;;5.70;99.90;;;;;;5020940;28;20557;-87
2022/02/05 10:51:43;;;;;;;1.83;1.00;;;5.80;99.90;;;;;;5020020;28;20227;-83
2022/02/05 10:54:18;;;;;;;2.03;1.90;;;5.70;99.90;;;;;;5020403;28;20215;-86
2022/02/05 10:57:02;;;;;;;1.17;1.05;;;5.90;99.90;;;;;;5020877;28;20309;-86
2022/02/05 11:00:10;;;;;;;1.50;1.27;;;6.20;99.90;;;;;;5021406;28;20218;-85
2022/02/05 11:05:34;;;;;;;1.50;1.17;;;6.30;99.90;;;;;;5020497;28;20186;-86
2022/02/05 11:08:02;;;;;;;2.50;1.30;;;6.80;99.40;;;;;;5020208;28;20187;-87
2022/02/05 11:18:56;;;;;;;1.80;0.93;;;8.50;94.40;;;;;;4962393;29;20192;-84
2022/02/05 11:21:24;;;;;;;2.58;1.20;;;8.60;92.50;;;;;;4997785;28;20206;-84
2022/02/05 11:23:56;;;;;;;1.05;0.95;;;8.60;92.50;;;;;;5025682;28;20199;-85
2022/02/05 11:26:25;;;;;;;2.45;2.33;;;8.30;92.40;;;;;;5025038;28;20206;-85
2022/02/05 11:28:55;;;;;;;2.00;1.10;;;8.40;93.10;;;;;;5025995;28;20210;-83
2022/02/05 11:31:30;;;;;;;2.05;1.02;;;8.50;92.90;;;;;;5031767;28;20203;-85
2022/02/05 11:34:22;;;;;;;1.52;1.08;;;9.00;93.30;;;;;;5032090;28;20210;-84
2022/02/05 11:37:00;;;;;;;1.67;0.90;;;9.30;92.80;;;;;;5032062;28;20235;-84
2022/02/05 11:39:27;;;;;;;0.80;0.80;;;9.30;90.90;;;;;;5033422;28;20272;-84
2022/02/05 11:41:56;;;;;;;0.75;0.75;;;9.50;90.10;;;;;;5032543;28;20223;-82
2022/02/05 11:44:27;;;;;;;1.10;1.00;;;9.50;89.90;;;;;;5033241;28;20203;-85
2022/02/05 11:47:28;;;;;;;1.40;0.65;;;9.40;88.60;;;;;;5032509;28;20188;-84
2022/02/05 11:50:22;;;;;;;1.85;0.90;;;9.60;89.20;;;;;;5030694;28;20198;-84
2022/02/05 11:53:09;;;;;;;1.00;1.00;;;9.90;88.70;;;;;;5033670;28;20245;-83
2022/02/05 11:55:42;;;;;;;1.77;1.07;;;9.70;87.40;;;;;;5032500;28;20225;-83
2022/02/05 11:58:13;;;;;;;1.05;0.80;;;10.00;86.20;;;;;;5032539;28;20486;-83
2022/02/05 12:00:47;;;;;;;1.80;1.00;;;9.80;85.90;;;;;;5032122;28;20211;-85
2022/02/05 12:03:27;;;;;;;1.65;1.20;;;9.90;85.00;;;;;;5030616;28;20227;-82
2022/02/05 12:05:59;;;;;;;1.25;0.85;;;8.80;85.20;;;;;;5030586;28;20203;-85
2022/02/05 12:08:27;;;;;;;2.80;0.93;;;8.40;87.80;;;;;;5028598;28;20207;-83
2022/02/05 12:10:57;;;;;;;2.40;1.02;;;8.40;88.50;;;;;;5027328;28;20211;-83
2022/02/05 12:13:29;;;;;;;1.30;1.08;;;9.00;89.40;;;;;;5064489;23;20241;-82
2022/02/05 12:16:19;;;;;;;0.90;0.88;;;9.80;86.60;;;;;;5021516;28;20459;-82
2022/02/05 12:18:58;;;;;;;1.35;0.80;;;9.80;84.90;;;;;;5018347;28;20216;-79
2022/02/05 12:21:30;;;;;;;1.83;1.10;;;10.10;83.80;;;;;;5014869;28;20239;-80
2022/02/05 12:27:00;;;;;;;2.43;1.27;;;10.40;80.30;;;;;;5016295;28;20204;-79
2022/02/05 12:29:31;;;;;;;0.80;0.80;;;10.40;79.90;;;;;;5018929;28;20469;-82
2022/02/05 12:31:58;;;;;;;1.10;1.10;;;9.70;80.40;;;;;;5019788;28;20223;-82
2022/02/05 12:34:32;;;;;;;2.45;1.30;;;9.60;83.80;;;;;;5021021;28;20258;-81
2022/02/05 12:37:00;;;;;;;0.60;0.60;;;10.30;83.50;;;;;;5018557;28;20227;-81
2022/02/05 12:39:29;;;;;;;1.20;1.10;;;10.90;79.20;;;;;;5015472;28;20749;-80
2022/02/05 12:41:59;;;;;;;1.17;1.00;;;11.30;78.50;;;;;;5014917;28;20860;-81
2022/02/05 12:44:29;;;;;;;5.33;1.77;;;11.70;78.50;;;;;;5017744;28;20473;-81
2022/02/05 12:47:01;;;;;;;0.77;0.77;;;12.10;77.10;;;;;;5018084;28;20457;-79
2022/02/05 12:49:32;;;;;;;1.17;1.07;;;12.10;75.40;;;;;;5020521;28;20476;-82
2022/02/05 12:52:00;;;;;;;2.07;1.30;;;12.30;73.60;;;;;;5022258;28;20508;-81
2022/02/05 12:54:29;;;;;;;1.53;0.90;;;12.40;73.90;;;;;;5021474;28;20812;-84
2022/02/05 12:56:57;;;;;;;1.23;0.83;;;12.60;72.00;;;;;;5016741;28;20520;-82
2022/02/05 12:59:30;;;;;;;7.30;0.83;;;12.80;71.70;;;;;;5015994;28;20456;-80
2022/02/05 13:02:00;;;;;;;1.27;1.10;;;13.00;72.20;;;;;;5012419;28;20561;-80
2022/02/05 13:04:29;;;;;;;2.93;1.10;;;12.90;71.30;;;;;;5014802;28;20461;-80
2022/02/05 13:07:05;;;;;;;1.57;1.47;;;12.40;70.00;;;;;;5017532;28;20453;-82
2022/02/05 13:09:35;;;;;;;1.57;0.73;;;12.30;70.20;;;;;;5018665;28;20467;-80
2022/02/05 13:12:04;;;;;;;2.40;1.00;;;12.60;70.00;;;;;;5016020;28;20485;-80
2022/02/05 13:14:40;;;;;;;3.40;1.07;;;12.90;68.70;;;;;;5017220;28;20460;-81
2022/02/05 13:17:26;;;;;;;1.27;1.03;;;12.40;68.50;;;;;;5016149;28;20834;-80
2022/02/05 13:20:12;;;;;;;1.00;1.00;;;11.90;68.00;;;;;;5016782;28;20441;-81
2022/02/05 13:28:25;;;;;;;1.93;0.90;;;12.60;67.90;;;;;;5015738;28;20442;-81
2022/02/05 13:33:59;;;;;;;5.00;1.27;;;12.80;68.70;;;;;;5017506;28;20475;-80
2022/02/05 13:36:38;;;;;;;1.40;0.87;;;13.30;69.20;;;;;;5015306;28;20482;-80
2022/02/05 13:39:17;;;;;;;2.37;1.37;;;13.90;67.30;;;;;;5016146;28;20446;-79
2022/02/05 13:41:54;;;;;;;5.20;1.60;;;13.70;65.70;;;;;;5017019;28;20489;-80
2022/02/05 13:44:23;;;;;;;1.27;1.17;;;13.20;65.50;;;;;;5015177;28;20825;-80
2022/02/05 13:47:04;;;;;;;0.90;0.70;;;12.30;66.60;;;;;;5013995;28;20450;-80
2022/02/05 13:49:33;;;;;;;0.90;0.80;;;12.80;67.40;;;;;;5015746;28;20970;-80
2022/02/05 13:52:07;;;;;;;0.70;0.70;;;13.20;67.90;;;;;;5016043;28;20473;-80
2022/02/05 13:54:35;;;;;;;1.70;1.07;;;13.50;65.70;;;;;;5015586;28;20834;-79
2022/02/05 13:57:02;;;;;;;1.50;1.23;;;13.30;65.00;;;;;;5014363;28;20491;-80
2022/02/05 13:59:30;;;;;;;1.37;0.73;;;12.70;64.90;;;;;;5014396;28;20450;-80
2022/02/05 14:02:11;;;;;;;0.70;0.37;;;12.80;65.50;;;;;;5014098;28;20477;-80
2022/02/05 14:04:39;;;;;;;0.77;0.70;;;12.40;65.00;;;;;;5018947;28;20452;-80
2022/02/05 14:07:06;;;;;;;1.40;0.80;;;12.20;66.20;;;;;;5018159;28;20459;-80
2022/02/05 14:09:36;;;;;;;2.70;1.10;;;12.00;67.00;;;;;;5017769;28;20534;-81
2022/02/05 14:12:19;;;;;;;2.27;1.10;;;10.70;67.60;;;;;;5019104;28;20487;-80
2022/02/05 14:15:01;;;;;;;0.93;0.82;;;9.70;70.20;;;;;;5018925;28;20463;-78
2022/02/05 14:17:27;;;;;;;1.38;0.60;;;8.90;73.30;;;;;;5021744;28;20247;-81
2022/02/05 14:20:08;;;;;;;0.77;0.75;;;8.90;75.50;;;;;;5019084;28;20289;-80
2022/02/05 14:22:37;;;;;;;1.30;0.80;;;9.20;75.50;;;;;;5021080;28;20223;-80
2022/02/05 14:25:09;;;;;;;1.27;0.80;;;9.40;75.40;;;;;;5024669;28;20199;-81
2022/02/05 14:27:39;;;;;;;0.77;0.77;;;9.70;75.80;;;;;;5026151;28;20263;-82
2022/02/05 14:30:12;;;;;;;1.65;0.95;;;10.00;74.40;;;;;;5027342;28;20226;-81
2022/02/05 14:32:51;;;;;;;1.00;1.00;;;10.10;73.10;;;;;;5025077;28;20224;-81
2022/02/05 14:40:47;;;;;;;0.98;0.90;;;10.10;73.30;;;;;;5017832;28;20563;-81
2022/02/05 14:43:16;;;;;;;1.42;1.33;;;10.30;74.40;;;;;;5020717;28;20252;-82
2022/02/05 14:45:43;;;;;;;1.52;0.85;;;10.40;74.60;;;;;;5022605;28;20207;-81
2022/02/05 14:48:11;;;;;;;1.33;1.23;;;10.30;73.40;;;;;;5038026;28;20199;-82
2022/02/05 14:50:39;;;;;;;4.65;1.30;;;10.00;73.40;;;;;;5037495;28;20811;-81
2022/02/05 14:53:07;;;;;;;2.10;1.30;;;9.80;75.50;;;;;;5027888;28;20705;-81
2022/02/05 14:55:34;;;;;;;2.65;1.15;;;9.20;76.30;;;;;;5034328;28;20204;-82